createdAt,value
2023-07-09T00:00:01.993Z,1167.00
2023-07-09T00:01:02.020Z,1169.00
2023-07-09T00:02:02.149Z,1199.00
2023-07-09T00:03:02.118Z,1215.00
2023-07-09T00:04:02.169Z,1182.00
2023-07-09T00:05:02.161Z,1179.00
2023-07-09T00:06:02.604Z,1169.00
2023-07-09T00:07:02.225Z,1194.00
2023-07-09T00:08:02.236Z,1163.00
2023-07-09T00:09:02.310Z,1177.00
2023-07-09T00:10:02.333Z,1169.00
2023-07-09T00:11:02.348Z,1173.00
2023-07-09T00:12:02.422Z,1211.00
2023-07-09T00:13:02.409Z,1201.00
2023-07-09T00:14:02.533Z,1216.00
2023-07-09T00:15:02.486Z,1210.00
2023-07-09T00:16:02.945Z,1223.00
2023-07-09T00:17:02.565Z,1232.00
2023-07-09T00:18:02.621Z,1200.00
2023-07-09T00:19:02.617Z,1169.00
2023-07-09T00:20:02.620Z,1197.00
2023-07-09T00:21:02.703Z,1215.00
2023-07-09T00:22:02.708Z,1212.00
2023-07-09T00:23:02.728Z,1187.00
2023-07-09T00:24:02.773Z,1192.00
2023-07-09T00:25:02.841Z,1197.00
2023-07-09T00:26:03.068Z,1231.00
2023-07-09T00:27:02.923Z,1221.00
2023-07-09T00:28:02.941Z,1215.00
2023-07-09T00:29:02.981Z,1209.00
2023-07-09T00:30:02.979Z,1229.00
2023-07-09T00:31:03.010Z,1216.00
2023-07-09T00:32:03.157Z,1203.00
2023-07-09T00:33:03.211Z,1204.00
2023-07-09T00:34:03.122Z,1234.00
2023-07-09T00:35:03.205Z,1256.00
2023-07-09T00:36:03.431Z,1267.00
2023-07-09T00:37:03.227Z,1281.00
2023-07-09T00:38:03.271Z,1283.00
2023-07-09T00:39:03.337Z,1304.00
2023-07-09T00:40:03.365Z,1280.00
2023-07-09T00:41:03.374Z,1296.00
2023-07-09T00:42:03.432Z,1299.00
2023-07-09T00:43:03.454Z,1313.00
2023-07-09T00:44:03.500Z,1318.00
2023-07-09T00:45:03.548Z,1325.00
2023-07-09T00:46:03.900Z,1319.00
2023-07-09T00:47:03.607Z,1325.00
2023-07-09T00:48:03.768Z,1321.00
2023-07-09T00:49:03.702Z,1341.00
2023-07-09T00:50:03.727Z,1339.00
2023-07-09T00:51:03.772Z,1338.00
2023-07-09T00:52:03.862Z,1333.00
2023-07-09T00:53:03.880Z,1350.00
2023-07-09T00:54:03.908Z,1354.00
2023-07-09T00:55:03.948Z,1340.00
2023-07-09T00:56:04.168Z,1333.00
2023-07-09T00:57:04.013Z,1346.00
2023-07-09T00:58:04.052Z,1358.00
2023-07-09T00:59:04.130Z,1346.00
2023-07-09T01:00:04.147Z,1349.00
2023-07-09T01:01:04.244Z,1364.00
2023-07-09T01:02:04.234Z,1377.00
2023-07-09T01:03:04.302Z,1392.00
2023-07-09T01:04:04.295Z,1392.00
2023-07-09T01:05:04.404Z,1399.00
2023-07-09T01:06:04.928Z,1399.00
2023-07-09T01:07:04.449Z,1392.00
2023-07-09T01:08:04.479Z,1401.00
2023-07-09T01:09:05.066Z,1428.00
2023-07-09T01:10:04.540Z,1400.00
2023-07-09T01:11:04.594Z,1418.00
2023-07-09T01:12:04.620Z,1427.00
2023-07-09T01:13:04.697Z,1420.00
2023-07-09T01:14:04.843Z,1415.00
2023-07-09T01:15:04.747Z,1402.00
2023-07-09T01:16:05.003Z,1439.00
2023-07-09T01:17:04.829Z,1395.00
2023-07-09T01:18:04.915Z,1405.00
2023-07-09T01:19:04.908Z,1391.00
2023-07-09T01:20:04.932Z,1405.00
2023-07-09T01:21:04.962Z,1420.00
2023-07-09T01:22:04.997Z,1417.00
2023-07-09T01:23:05.037Z,1421.00
2023-07-09T01:24:05.078Z,1418.00
2023-07-09T01:25:05.133Z,1439.00
2023-07-09T01:26:05.612Z,1447.00
2023-07-09T01:27:05.198Z,1435.00
2023-07-09T01:28:05.249Z,1446.00
2023-07-09T01:29:05.285Z,1472.00
2023-07-09T01:30:05.317Z,1476.00
2023-07-09T01:31:05.384Z,1492.00
2023-07-09T01:32:05.403Z,1496.00
2023-07-09T01:33:05.474Z,1521.00
2023-07-09T01:34:05.499Z,1521.00
2023-07-09T01:35:05.558Z,1530.00
2023-07-09T01:36:05.893Z,1533.00
2023-07-09T01:37:05.636Z,1544.00
2023-07-09T01:38:05.712Z,1557.00
2023-07-09T01:39:05.737Z,1554.00
2023-07-09T01:40:10.814Z,1571.00
2023-07-09T01:41:06.797Z,1572.00
2023-07-09T01:42:05.759Z,1575.00
2023-07-09T01:43:06.209Z,1584.00
2023-07-09T01:44:05.751Z,1583.00
2023-07-09T01:45:05.744Z,1589.00
2023-07-09T01:46:05.918Z,1583.00
2023-07-09T01:47:05.778Z,1594.00
2023-07-09T01:48:05.796Z,1569.00
2023-07-09T01:49:05.735Z,1583.00
2023-07-09T01:50:05.747Z,1579.00
2023-07-09T01:51:05.811Z,1583.00
2023-07-09T01:52:05.869Z,1576.00
2023-07-09T01:53:05.901Z,1572.00
2023-07-09T01:54:05.932Z,1561.00
2023-07-09T01:55:05.961Z,1540.00
2023-07-09T01:56:06.215Z,1554.00
2023-07-09T01:57:06.063Z,1543.00
2023-07-09T01:58:06.115Z,1546.00
2023-07-09T01:59:06.130Z,1521.00
2023-07-09T02:00:06.213Z,1511.00
2023-07-09T02:01:06.288Z,1503.00
2023-07-09T02:02:06.344Z,1491.00
2023-07-09T02:03:06.376Z,1481.00
2023-07-09T02:04:06.477Z,1494.00
2023-07-09T02:05:06.425Z,1495.00
2023-07-09T02:06:06.609Z,1499.00
2023-07-09T02:07:06.511Z,1507.00
2023-07-09T02:08:06.572Z,1510.00
2023-07-09T02:09:06.605Z,1497.00
2023-07-09T02:10:06.647Z,1509.00
2023-07-09T02:11:06.706Z,1496.00
2023-07-09T02:12:06.734Z,1497.00
2023-07-09T02:13:06.783Z,1509.00
2023-07-09T02:14:06.926Z,1491.00
2023-07-09T02:15:06.866Z,1498.00
2023-07-09T02:16:07.050Z,1504.00
2023-07-09T02:17:07.053Z,1512.00
2023-07-09T02:18:07.098Z,1507.00
2023-07-09T02:19:07.076Z,1515.00
2023-07-09T02:20:07.091Z,1516.00
2023-07-09T02:21:07.149Z,1531.00
2023-07-09T02:22:07.183Z,1518.00
2023-07-09T02:23:07.245Z,1515.00
2023-07-09T02:24:07.284Z,1507.00
2023-07-09T02:25:07.334Z,1520.00
2023-07-09T02:26:07.608Z,1497.00
2023-07-09T02:27:07.446Z,1523.00
2023-07-09T02:28:07.587Z,1511.00
2023-07-09T02:29:07.547Z,1502.00
2023-07-09T02:30:07.596Z,1500.00
2023-07-09T02:31:07.765Z,1488.00
2023-07-09T02:32:07.704Z,1506.00
2023-07-09T02:33:07.821Z,1497.00
2023-07-09T02:34:07.819Z,1483.00
2023-07-09T02:35:07.900Z,1487.00
2023-07-09T02:36:07.921Z,1481.00
2023-07-09T02:37:07.990Z,1483.00
2023-07-09T02:38:08.056Z,1484.00
2023-07-09T02:39:08.106Z,1476.00
2023-07-09T02:40:08.163Z,1448.00
2023-07-09T02:41:08.230Z,1444.00
2023-07-09T02:42:08.260Z,1449.00
2023-07-09T02:43:08.371Z,1436.00
2023-07-09T02:44:08.388Z,1431.00
2023-07-09T02:45:08.458Z,1435.00
2023-07-09T02:46:08.505Z,1421.00
2023-07-09T02:47:08.584Z,1425.00
2023-07-09T02:48:08.697Z,1419.00
2023-07-09T02:49:08.644Z,1393.00
2023-07-09T02:50:08.714Z,1393.00
2023-07-09T02:51:08.787Z,1391.00
2023-07-09T02:52:08.848Z,1397.00
2023-07-09T02:53:08.892Z,1400.00
2023-07-09T02:54:08.927Z,1386.00
2023-07-09T02:55:08.998Z,1402.00
2023-07-09T02:56:09.059Z,1399.00
2023-07-09T02:57:09.103Z,1411.00
2023-07-09T02:58:09.162Z,1383.00
2023-07-09T02:59:09.220Z,1383.00
2023-07-09T03:00:09.297Z,1405.00
2023-07-09T03:01:09.366Z,1378.00
2023-07-09T03:02:09.425Z,1383.00
2023-07-09T03:03:09.519Z,1386.00
2023-07-09T03:04:09.664Z,1382.00
2023-07-09T03:05:09.598Z,1378.00
2023-07-09T03:06:09.622Z,1373.00
2023-07-09T03:07:09.695Z,1371.00
2023-07-09T03:08:09.758Z,1372.00
2023-07-09T03:09:09.827Z,1361.00
2023-07-09T03:10:09.849Z,1366.00
2023-07-09T03:11:09.898Z,1362.00
2023-07-09T03:12:09.972Z,1366.00
2023-07-09T03:13:10.056Z,1371.00
2023-07-09T03:14:10.288Z,1366.00
2023-07-09T03:15:10.150Z,1370.00
2023-07-09T03:16:10.265Z,1362.00
2023-07-09T03:17:10.291Z,1351.00
2023-07-09T03:18:10.345Z,1365.00
2023-07-09T03:19:10.398Z,1365.00
2023-07-09T03:20:10.447Z,1355.00
2023-07-09T03:21:10.511Z,1356.00
2023-07-09T03:22:10.573Z,1356.00
2023-07-09T03:23:10.654Z,1358.00
2023-07-09T03:24:10.687Z,1367.00
2023-07-09T03:25:10.748Z,1351.00
2023-07-09T03:26:10.817Z,1350.00
2023-07-09T03:27:10.875Z,1355.00
2023-07-09T03:28:10.951Z,1359.00
2023-07-09T03:29:11.024Z,1351.00
2023-07-09T03:30:11.109Z,1355.00
2023-07-09T03:31:11.120Z,1362.00
2023-07-09T03:32:11.315Z,1381.00
2023-07-09T03:33:11.317Z,1374.00
2023-07-09T03:34:11.311Z,1377.00
2023-07-09T03:35:11.399Z,1381.00
2023-07-09T03:36:11.469Z,1382.00
2023-07-09T03:37:11.512Z,1374.00
2023-07-09T03:38:11.586Z,1387.00
2023-07-09T03:39:11.646Z,1373.00
2023-07-09T03:40:11.690Z,1391.00
2023-07-09T03:41:11.784Z,1371.00
2023-07-09T03:42:12.991Z,1371.00
2023-07-09T03:43:11.934Z,1374.00
2023-07-09T03:44:11.967Z,1368.00
2023-07-09T03:45:12.001Z,1361.00
2023-07-09T03:46:12.048Z,1371.00
2023-07-09T03:47:12.146Z,1375.00
2023-07-09T03:48:12.283Z,1366.00
2023-07-09T03:49:12.275Z,1351.00
2023-07-09T03:50:12.373Z,1367.00
2023-07-09T03:51:12.385Z,1351.00
2023-07-09T03:52:12.432Z,1344.00
2023-07-09T03:53:12.516Z,1350.00
2023-07-09T03:54:12.588Z,1363.00
2023-07-09T03:55:13.277Z,1364.00
2023-07-09T03:56:12.658Z,1350.00
2023-07-09T03:57:12.798Z,1351.00
2023-07-09T03:58:13.277Z,1333.00
2023-07-09T03:59:12.860Z,1335.00
2023-07-09T04:00:12.943Z,1330.00
2023-07-09T04:01:13.011Z,1345.00
2023-07-09T04:02:13.054Z,1320.00
2023-07-09T04:03:13.119Z,1325.00
2023-07-09T04:04:13.266Z,1290.00
2023-07-09T04:05:13.253Z,1289.00
2023-07-09T04:06:13.309Z,1286.00
2023-07-09T04:07:13.394Z,1290.00
2023-07-09T04:08:13.420Z,1271.00
2023-07-09T04:09:13.485Z,1239.00
2023-07-09T04:10:13.553Z,1258.00
2023-07-09T04:11:13.606Z,1242.00
2023-07-09T04:12:13.679Z,1271.00
2023-07-09T04:13:13.735Z,1235.00
2023-07-09T04:14:13.818Z,1218.00
2023-07-09T04:15:13.819Z,1211.00
2023-07-09T04:16:13.944Z,1237.00
2023-07-09T04:17:13.973Z,1205.00
2023-07-09T04:18:14.053Z,1227.00
2023-07-09T04:19:14.123Z,1227.00
2023-07-09T04:20:14.126Z,1231.00
2023-07-09T04:21:14.182Z,1232.00
2023-07-09T04:22:14.224Z,1235.00
2023-07-09T04:23:14.299Z,1257.00
2023-07-09T04:24:14.410Z,1270.00
2023-07-09T04:25:14.481Z,1290.00
2023-07-09T04:26:14.508Z,1297.00
2023-07-09T04:27:14.544Z,1314.00
2023-07-09T04:28:14.604Z,1314.00
2023-07-09T04:29:14.652Z,1324.00
2023-07-09T04:30:14.717Z,1323.00
2023-07-09T04:31:14.811Z,1335.00
2023-07-09T04:32:15.442Z,1332.00
2023-07-09T04:33:14.896Z,1334.00
2023-07-09T04:34:14.982Z,1322.00
2023-07-09T04:35:15.066Z,1329.00
2023-07-09T04:36:15.048Z,1350.00
2023-07-09T04:37:15.137Z,1338.00
2023-07-09T04:38:15.220Z,1330.00
2023-07-09T04:39:15.261Z,1333.00
2023-07-09T04:40:15.286Z,1320.00
2023-07-09T04:41:15.376Z,1307.00
2023-07-09T04:42:15.401Z,1315.00
2023-07-09T04:43:15.472Z,1304.00
2023-07-09T04:44:15.516Z,1313.00
2023-07-09T04:45:15.558Z,1295.00
2023-07-09T04:46:15.653Z,1298.00
2023-07-09T04:47:15.741Z,1301.00
2023-07-09T04:48:15.756Z,1302.00
2023-07-09T04:49:15.815Z,1264.00
2023-07-09T04:50:15.882Z,1286.00
2023-07-09T04:51:15.948Z,1305.00
2023-07-09T04:52:16.001Z,1303.00
2023-07-09T04:53:16.054Z,1288.00
2023-07-09T04:54:16.117Z,1281.00
2023-07-09T04:55:16.183Z,1280.00
2023-07-09T04:56:16.287Z,1272.00
2023-07-09T04:57:16.323Z,1257.00
2023-07-09T04:58:16.409Z,1270.00
2023-07-09T04:59:16.412Z,1287.00
2023-07-09T05:00:16.484Z,1257.00
2023-07-09T05:01:16.669Z,1279.00
2023-07-09T05:02:16.575Z,1284.00
2023-07-09T05:03:16.680Z,1270.00
2023-07-09T05:04:17.126Z,1271.00
2023-07-09T05:05:16.815Z,1275.00
2023-07-09T05:06:16.807Z,1275.00
2023-07-09T05:07:16.956Z,1260.00
2023-07-09T05:08:16.894Z,1272.00
2023-07-09T05:09:16.955Z,1286.00
2023-07-09T05:10:17.026Z,1271.00
2023-07-09T05:11:17.081Z,1255.00
2023-07-09T05:12:18.831Z,1251.00
2023-07-09T05:13:17.185Z,1266.00
2023-07-09T05:14:17.210Z,1250.00
2023-07-09T05:15:17.232Z,1249.00
2023-07-09T05:16:17.384Z,1257.00
2023-07-09T05:17:17.321Z,1255.00
2023-07-09T05:18:17.380Z,1263.00
2023-07-09T05:19:17.385Z,1274.00
2023-07-09T05:20:17.480Z,1277.00
2023-07-09T05:21:17.472Z,1286.00
2023-07-09T05:22:17.505Z,1274.00
2023-07-09T05:23:17.583Z,1284.00
2023-07-09T05:24:17.561Z,1298.00
2023-07-09T05:25:17.641Z,1300.00
2023-07-09T05:26:17.639Z,1313.00
2023-07-09T05:27:17.700Z,1329.00
2023-07-09T05:28:17.689Z,1345.00
2023-07-09T05:29:17.727Z,1348.00
2023-07-09T05:30:17.778Z,1344.00
2023-07-09T05:31:17.934Z,1347.00
2023-07-09T05:32:17.856Z,1354.00
2023-07-09T05:33:17.860Z,1359.00
2023-07-09T05:34:17.884Z,1360.00
2023-07-09T05:35:17.951Z,1364.00
2023-07-09T05:36:17.954Z,1358.00
2023-07-09T05:37:17.977Z,1355.00
2023-07-09T05:38:18.011Z,1352.00
2023-07-09T05:39:18.029Z,1348.00
2023-07-09T05:40:18.105Z,1335.00
2023-07-09T05:41:18.085Z,1329.00
2023-07-09T05:42:18.092Z,1329.00
2023-07-09T05:43:18.110Z,1315.00
2023-07-09T05:44:18.134Z,1325.00
2023-07-09T05:45:18.176Z,1335.00
2023-07-09T05:46:18.190Z,1318.00
2023-07-09T05:47:18.278Z,1314.00
2023-07-09T05:48:18.237Z,1313.00
2023-07-09T05:49:18.235Z,1297.00
2023-07-09T05:50:18.260Z,1277.00
2023-07-09T05:51:18.266Z,1273.00
2023-07-09T05:52:18.288Z,1288.00
2023-07-09T05:53:18.317Z,1307.00
2023-07-09T05:54:18.297Z,1284.00
2023-07-09T05:55:18.375Z,1294.00
2023-07-09T05:56:18.359Z,1315.00
2023-07-09T05:57:18.368Z,1289.00
2023-07-09T05:58:18.374Z,1310.00
2023-07-09T05:59:18.382Z,1323.00
2023-07-09T06:00:18.409Z,1302.00
2023-07-09T06:01:18.418Z,1312.00
2023-07-09T06:02:18.595Z,1322.00
2023-07-09T06:03:18.543Z,1319.00
2023-07-09T06:04:18.477Z,1333.00
2023-07-09T06:05:18.428Z,1336.00
2023-07-09T06:06:18.432Z,1321.00
2023-07-09T06:07:18.429Z,1338.00
2023-07-09T06:08:18.456Z,1338.00
2023-07-09T06:09:18.469Z,1324.00
2023-07-09T06:10:18.489Z,1323.00
2023-07-09T06:11:18.481Z,1304.00
2023-07-09T06:12:18.501Z,1265.00
2023-07-09T06:13:18.497Z,1272.00
2023-07-09T06:14:18.534Z,1265.00
2023-07-09T06:15:18.504Z,1256.00
2023-07-09T06:16:18.547Z,1254.00
2023-07-09T06:17:18.516Z,1232.00
2023-07-09T06:18:18.537Z,1217.00
2023-07-09T06:19:18.552Z,1217.00
2023-07-09T06:20:18.519Z,1214.00
2023-07-09T06:21:18.527Z,1196.00
2023-07-09T06:22:18.569Z,1206.00
2023-07-09T06:23:18.546Z,1222.00
2023-07-09T06:24:18.551Z,1233.00
2023-07-09T06:25:18.554Z,1228.00
2023-07-09T06:26:18.544Z,1229.00
2023-07-09T06:27:18.553Z,1208.00
2023-07-09T06:28:18.542Z,1217.00
2023-07-09T06:29:18.551Z,1241.00
2023-07-09T06:30:18.555Z,1221.00
2023-07-09T06:31:18.599Z,1242.00
2023-07-09T06:32:18.642Z,1263.00
2023-07-09T06:33:18.570Z,1288.00
2023-07-09T06:34:18.537Z,1286.00
2023-07-09T06:35:18.557Z,1298.00
2023-07-09T06:36:18.595Z,1306.00
2023-07-09T06:37:18.598Z,1292.00
2023-07-09T06:38:18.626Z,1314.00
2023-07-09T06:39:18.678Z,1304.00
2023-07-09T06:40:18.712Z,1294.00
2023-07-09T06:41:18.708Z,1287.00
2023-07-09T06:42:18.743Z,1274.00
2023-07-09T06:43:18.775Z,1270.00
2023-07-09T06:44:18.794Z,1248.00
2023-07-09T06:45:18.870Z,1216.00
2023-07-09T06:46:18.955Z,1157.00
2023-07-09T06:47:18.984Z,1148.00
2023-07-09T06:48:19.042Z,1133.00
2023-07-09T06:49:19.119Z,1098.00
2023-07-09T06:50:19.140Z,1088.00
2023-07-09T06:51:19.178Z,1082.00
2023-07-09T06:52:19.281Z,1070.00
2023-07-09T06:53:19.340Z,1070.00
2023-07-09T06:54:19.378Z,1078.00
2023-07-09T06:55:19.421Z,1082.00
2023-07-09T06:56:19.506Z,1064.00
2023-07-09T06:57:19.568Z,1070.00
2023-07-09T06:58:19.658Z,1096.00
2023-07-09T06:59:19.727Z,1088.00
2023-07-09T07:00:19.762Z,1121.00
2023-07-09T07:01:21.298Z,1122.00
2023-07-09T07:02:19.882Z,1147.00
2023-07-09T07:03:20.137Z,1205.00
2023-07-09T07:04:19.965Z,1180.00
2023-07-09T07:05:20.051Z,1200.00
2023-07-09T07:06:20.044Z,1199.00
2023-07-09T07:07:20.131Z,1194.00
2023-07-09T07:08:20.184Z,1232.00
2023-07-09T07:09:20.230Z,1232.00
2023-07-09T07:10:20.287Z,1237.00
2023-07-09T07:11:20.354Z,1256.00
2023-07-09T07:12:20.369Z,1249.00
2023-07-09T07:13:20.439Z,1237.00
2023-07-09T07:14:20.600Z,1232.00
2023-07-09T07:15:20.533Z,1233.00
2023-07-09T07:16:20.593Z,1233.00
2023-07-09T07:17:20.637Z,1237.00
2023-07-09T07:18:20.685Z,1225.00
2023-07-09T07:19:20.706Z,1220.00
2023-07-09T07:20:20.722Z,1232.00
2023-07-09T07:21:20.798Z,1236.00
2023-07-09T07:22:20.799Z,1223.00
2023-07-09T07:23:20.865Z,1203.00
2023-07-09T07:24:20.858Z,1204.00
2023-07-09T07:25:20.912Z,1235.00
2023-07-09T07:26:20.936Z,1205.00
2023-07-09T07:27:20.979Z,1200.00
2023-07-09T07:28:21.048Z,1221.00
2023-07-09T07:29:21.036Z,1224.00
2023-07-09T07:30:22.269Z,1228.00
2023-07-09T07:31:21.140Z,1262.00
2023-07-09T07:32:21.166Z,1267.00
2023-07-09T07:33:21.116Z,1266.00
2023-07-09T07:34:21.145Z,1280.00
2023-07-09T07:35:21.181Z,1289.00
2023-07-09T07:36:30.119Z,1299.00
2023-07-09T07:37:22.207Z,1300.00
2023-07-09T07:38:21.183Z,1302.00
2023-07-09T07:39:21.177Z,1301.00
2023-07-09T07:40:21.178Z,1308.00
2023-07-09T07:41:21.176Z,1301.00
2023-07-09T07:42:21.175Z,1303.00
2023-07-09T07:43:21.166Z,1282.00
2023-07-09T07:44:21.172Z,1264.00
2023-07-09T07:45:21.160Z,1282.00
2023-07-09T07:46:21.189Z,1278.00
2023-07-09T07:47:21.152Z,1256.00
2023-07-09T07:48:21.135Z,1248.00
2023-07-09T07:49:21.130Z,1267.00
2023-07-09T07:50:21.138Z,1278.00
2023-07-09T07:51:21.138Z,1270.00
2023-07-09T07:52:21.136Z,1225.00
2023-07-09T07:53:21.102Z,1258.00
2023-07-09T07:54:21.072Z,1189.00
2023-07-09T07:55:21.094Z,1212.00
2023-07-09T07:56:21.080Z,1202.00
2023-07-09T07:57:21.064Z,1194.00
2023-07-09T07:58:21.051Z,1199.00
2023-07-09T07:59:21.043Z,1231.00
2023-07-09T08:00:21.034Z,1270.00
2023-07-09T08:01:21.090Z,1190.00
2023-07-09T08:02:21.086Z,1204.00
2023-07-09T08:03:21.040Z,1162.00
2023-07-09T08:04:21.177Z,1210.00
2023-07-09T08:05:21.009Z,1157.00
2023-07-09T08:06:21.004Z,1179.00
2023-07-09T08:07:21.018Z,1142.00
2023-07-09T08:08:21.003Z,1147.00
2023-07-09T08:09:20.993Z,1097.00
2023-07-09T08:10:20.990Z,1093.00
2023-07-09T08:11:20.980Z,1092.00
2023-07-09T08:12:20.989Z,1066.00
2023-07-09T08:13:20.966Z,1093.00
2023-07-09T08:14:21.063Z,1081.00
2023-07-09T08:15:20.942Z,1079.00
2023-07-09T08:16:20.967Z,990.00
2023-07-09T08:17:20.969Z,1025.00
2023-07-09T08:18:20.985Z,1003.00
2023-07-09T08:19:20.930Z,1044.00
2023-07-09T08:20:20.918Z,1006.00
2023-07-09T08:21:20.910Z,1029.00
2023-07-09T08:22:20.887Z,991.00
2023-07-09T08:23:20.940Z,1025.00
2023-07-09T08:24:20.903Z,957.00
2023-07-09T08:25:20.873Z,954.00
2023-07-09T08:26:20.862Z,1006.00
2023-07-09T08:27:20.893Z,971.00
2023-07-09T08:28:20.925Z,917.00
2023-07-09T08:29:20.919Z,977.00
2023-07-09T08:30:20.957Z,937.00
2023-07-09T08:31:20.971Z,991.00
2023-07-09T08:32:21.011Z,995.00
2023-07-09T08:33:21.045Z,937.00
2023-07-09T08:34:21.022Z,985.00
2023-07-09T08:36:21.076Z,960.00
2023-07-09T08:37:21.064Z,937.00
2023-07-09T08:38:21.065Z,933.00
2023-07-09T08:39:21.048Z,943.00
2023-07-09T08:40:21.045Z,953.00
2023-07-09T08:41:21.024Z,901.00
2023-07-09T08:42:21.032Z,923.00
2023-07-09T08:43:21.037Z,919.00
2023-07-09T08:44:21.010Z,906.00
2023-07-09T08:45:21.019Z,868.00
2023-07-09T08:46:21.035Z,826.00
2023-07-09T08:47:21.015Z,843.00
2023-07-09T08:48:21.002Z,885.00
2023-07-09T08:49:20.991Z,860.00
2023-07-09T08:50:20.982Z,866.00
2023-07-09T08:51:20.987Z,808.00
2023-07-09T08:52:20.969Z,822.00
2023-07-09T08:53:20.958Z,809.00
2023-07-09T08:54:20.955Z,811.00
2023-07-09T08:55:20.943Z,855.00
2023-07-09T08:56:20.961Z,867.00
2023-07-09T08:57:20.942Z,764.00
2023-07-09T08:58:20.934Z,744.00
2023-07-09T08:59:20.926Z,784.00
2023-07-09T09:00:20.906Z,794.00
2023-07-09T09:01:20.993Z,780.00
2023-07-09T09:02:20.960Z,746.00
2023-07-09T09:03:20.924Z,783.00
2023-07-09T09:04:20.883Z,787.00
2023-07-09T09:05:20.895Z,765.00
2023-07-09T09:06:20.866Z,721.00
2023-07-09T09:07:20.893Z,754.00
2023-07-09T09:08:20.912Z,757.00
2023-07-09T09:09:20.900Z,743.00
2023-07-09T09:10:20.852Z,667.00
2023-07-09T09:11:20.834Z,666.00
2023-07-09T09:12:20.839Z,665.00
2023-07-09T09:13:20.856Z,656.00
2023-07-09T09:14:20.837Z,689.00
2023-07-09T09:15:20.838Z,646.00
2023-07-09T09:16:20.919Z,644.00
2023-07-09T09:17:20.954Z,635.00
2023-07-09T09:18:21.016Z,651.00
2023-07-09T09:19:21.026Z,627.00
2023-07-09T09:20:21.081Z,641.00
2023-07-09T09:21:21.151Z,626.00
2023-07-09T09:22:21.215Z,621.00
2023-07-09T09:23:21.247Z,626.00
2023-07-09T09:24:21.309Z,607.00
2023-07-09T09:25:21.435Z,612.00
2023-07-09T09:26:21.426Z,604.00
2023-07-09T09:27:21.445Z,612.00
2023-07-09T09:28:21.494Z,600.00
2023-07-09T09:29:21.548Z,605.00
2023-07-09T09:30:21.649Z,605.00
2023-07-09T09:31:21.708Z,610.00
2023-07-09T09:32:21.728Z,593.00
2023-07-09T09:33:21.738Z,605.00
2023-07-09T09:34:21.809Z,612.00
2023-07-09T09:35:21.844Z,619.00
2023-07-09T09:36:21.913Z,627.00
2023-07-09T09:37:21.963Z,613.00
2023-07-09T09:38:22.039Z,611.00
2023-07-09T09:39:22.091Z,620.00
2023-07-09T09:40:22.135Z,631.00
2023-07-09T09:41:22.415Z,614.00
2023-07-09T09:42:22.199Z,619.00
2023-07-09T09:43:22.321Z,609.00
2023-07-09T09:44:22.299Z,605.00
2023-07-09T09:45:22.374Z,609.00
2023-07-09T09:46:22.444Z,626.00
2023-07-09T09:47:22.609Z,592.00
2023-07-09T09:48:22.517Z,604.00
2023-07-09T09:49:22.564Z,620.00
2023-07-09T09:50:22.609Z,629.00
2023-07-09T09:51:22.656Z,594.00
2023-07-09T09:52:22.756Z,631.00
2023-07-09T09:53:22.794Z,552.00
2023-07-09T09:54:22.843Z,591.00
2023-07-09T09:55:22.869Z,599.00
2023-07-09T09:56:22.932Z,564.00
2023-07-09T09:57:22.979Z,602.00
2023-07-09T09:58:23.063Z,602.00
2023-07-09T09:59:23.105Z,536.00
2023-07-09T10:00:23.231Z,539.00
2023-07-09T10:01:23.243Z,543.00
2023-07-09T10:02:23.282Z,550.00
2023-07-09T10:03:23.465Z,548.00
2023-07-09T10:04:23.373Z,540.00
2023-07-09T10:05:23.432Z,556.00
2023-07-09T10:06:23.465Z,547.00
2023-07-09T10:07:23.534Z,578.00
2023-07-09T10:08:23.613Z,577.00
2023-07-09T10:09:23.671Z,580.00
2023-07-09T10:10:23.714Z,604.00
2023-07-09T10:11:23.759Z,593.00
2023-07-09T10:12:23.830Z,559.00
2023-07-09T10:13:24.075Z,565.00
2023-07-09T10:14:23.932Z,591.00
2023-07-09T10:15:23.974Z,583.00
2023-07-09T10:16:24.029Z,561.00
2023-07-09T10:17:24.142Z,582.00
2023-07-09T10:18:24.231Z,566.00
2023-07-09T10:19:24.197Z,579.00
2023-07-09T10:20:25.407Z,577.00
2023-07-09T10:21:24.317Z,599.00
2023-07-09T10:22:24.345Z,566.00
2023-07-09T10:23:24.434Z,538.00
2023-07-09T10:24:24.485Z,566.00
2023-07-09T10:25:24.532Z,566.00
2023-07-09T10:26:24.588Z,566.00
2023-07-09T10:27:24.694Z,579.00
2023-07-09T10:28:24.696Z,591.00
2023-07-09T10:29:24.747Z,608.00
2023-07-09T10:30:24.844Z,593.00
2023-07-09T10:31:24.894Z,588.00
2023-07-09T10:32:24.939Z,567.00
2023-07-09T10:33:24.975Z,581.00
2023-07-09T10:34:25.019Z,587.00
2023-07-09T10:35:25.066Z,559.00
2023-07-09T10:36:25.122Z,528.00
2023-07-09T10:37:25.188Z,550.00
2023-07-09T10:38:25.233Z,509.00
2023-07-09T10:39:25.298Z,532.00
2023-07-09T10:40:25.337Z,533.00
2023-07-09T10:41:27.735Z,514.00
2023-07-09T10:42:25.376Z,542.00
2023-07-09T10:43:25.407Z,551.00
2023-07-09T10:44:25.371Z,559.00
2023-07-09T10:45:25.395Z,563.00
2023-07-09T10:46:25.415Z,542.00
2023-07-09T10:47:25.361Z,510.00
2023-07-09T10:48:25.353Z,536.00
2023-07-09T10:49:25.378Z,557.00
2023-07-09T10:50:25.350Z,557.00
2023-07-09T10:51:25.352Z,540.00
2023-07-09T10:52:25.317Z,533.00
2023-07-09T10:53:25.329Z,540.00
2023-07-09T10:54:25.300Z,534.00
2023-07-09T10:55:25.319Z,523.00
2023-07-09T10:56:25.292Z,541.00
2023-07-09T10:57:25.308Z,537.00
2023-07-09T10:58:25.284Z,544.00
2023-07-09T10:59:25.297Z,530.00
2023-07-09T11:00:25.282Z,542.00
2023-07-09T11:01:25.306Z,530.00
2023-07-09T11:02:25.316Z,533.00
2023-07-09T11:03:25.412Z,525.00
2023-07-09T11:04:25.256Z,504.00
2023-07-09T11:05:25.263Z,513.00
2023-07-09T11:06:25.235Z,512.00
2023-07-09T11:07:25.234Z,518.00
2023-07-09T11:08:25.248Z,522.00
2023-07-09T11:09:25.253Z,527.00
2023-07-09T11:10:25.238Z,532.00
2023-07-09T11:11:25.237Z,525.00
2023-07-09T11:12:25.212Z,542.00
2023-07-09T11:13:27.343Z,525.00
2023-07-09T11:14:26.250Z,525.00
2023-07-09T11:15:25.193Z,520.00
2023-07-09T11:16:25.249Z,490.00
2023-07-09T11:17:25.211Z,489.00
2023-07-09T11:18:25.202Z,520.00
2023-07-09T11:19:25.185Z,501.00
2023-07-09T11:20:25.157Z,500.00
2023-07-09T11:21:25.145Z,506.00
2023-07-09T11:22:25.177Z,538.00
2023-07-09T11:23:25.328Z,527.00
2023-07-09T11:24:25.293Z,519.00
2023-07-09T11:25:25.352Z,508.00
2023-07-09T11:26:25.392Z,501.00
2023-07-09T11:27:25.464Z,506.00
2023-07-09T11:28:25.536Z,504.00
2023-07-09T11:29:25.584Z,529.00
2023-07-09T11:30:25.629Z,503.00
2023-07-09T11:31:25.760Z,510.00
2023-07-09T11:32:25.796Z,514.00
2023-07-09T11:33:25.899Z,514.00
2023-07-09T11:34:25.891Z,514.00
2023-07-09T11:35:25.934Z,519.00
2023-07-09T11:36:25.992Z,515.00
2023-07-09T11:37:26.068Z,511.00
2023-07-09T11:38:26.168Z,500.00
2023-07-09T11:39:26.186Z,508.00
2023-07-09T11:40:26.212Z,501.00
2023-07-09T11:41:26.259Z,523.00
2023-07-09T11:42:26.353Z,519.00
2023-07-09T11:43:26.373Z,505.00
2023-07-09T11:44:26.464Z,505.00
2023-07-09T11:45:26.499Z,500.00
2023-07-09T11:46:26.593Z,500.00
2023-07-09T11:47:26.627Z,502.00
2023-07-09T11:48:26.692Z,507.00
2023-07-09T11:49:26.744Z,513.00
2023-07-09T11:50:26.868Z,522.00
2023-07-09T11:51:26.816Z,524.00
2023-07-09T11:52:26.897Z,521.00
2023-07-09T11:53:26.963Z,509.00
2023-07-09T11:54:27.006Z,513.00
2023-07-09T11:55:27.077Z,504.00
2023-07-09T11:56:27.104Z,508.00
2023-07-09T11:57:27.234Z,500.00
2023-07-09T11:58:27.252Z,504.00
2023-07-09T11:59:27.294Z,500.00
2023-07-09T12:00:27.322Z,506.00
2023-07-09T12:01:27.430Z,516.00
2023-07-09T12:02:27.457Z,500.00
2023-07-09T12:03:27.536Z,506.00
2023-07-09T12:04:27.567Z,508.00
2023-07-09T12:05:27.648Z,524.00
2023-07-09T12:06:27.691Z,524.00
2023-07-09T12:07:27.730Z,519.00
2023-07-09T12:08:27.803Z,522.00
2023-07-09T12:09:27.876Z,513.00
2023-07-09T12:10:27.893Z,501.00
2023-07-09T12:11:27.984Z,500.00
2023-07-09T12:12:28.034Z,525.00
2023-07-09T12:13:28.098Z,506.00